Terminal Aerodrome Forecast
Issued by NWS

Home | Current Version | Previous Version | Text Only | Print | Product List | Glossary On
Versions: 1 2 3 4 5 6 7 8 9 10 11 12
000
FTUS45 KPSR 211100
TAFBLH
TAF
KBLH 211121Z 2112/2212 VRB05KT P6SM SCT250
      TEMPO 2112/2113 33005KT
     FM211800 21006KT P6SM FEW250
     FM220600 VRB05KT P6SM FEW250=

USA.gov is the U.S. government's official web portal to all federal, state and local government web resources and services.